Christchurch, New Zealand

2:52 PM NZDT on February 12, 2016 (GMT +1300)
Christchurch International | | Change Station
CLOSE
Current Station
Airport
Location: Christchurch,
Elevation: 125 ft
Nearby Weather Stations

Elev 125 ft 43.48 °S, 172.55 °E | Updated 22 minutes ago

Clear
Clear
72 °F
Feels Like 72 °F
N
12
Wind Variable Wind from ENE

Today
High -- | Low -- °F
--% Chance of Precip.
Yesterday
High -- | Low -- °F
Precip. -- in
Pressure 30.01 in
Visibility 6.2 miles
Clouds
Dew Point 55 °F
Humidity 57%
Rainfall 0.00 in
Snow Depth Not available.
6:44 AM 8:42 PM
Waxing Crescent, 16% visible
METAR NZCH 120130Z AUTO 07010KT 030V110 9999 NCD 22/13 Q1016 NOSIG
Pressure 30.01 in
Visibility 6.2 miles
Clouds
Dew Point 55 °F
Humidity 57%
Rainfall 0.00 in
Snow Depth Not available.
6:44 AM 8:42 PM
Waxing Crescent, 16% visible
METAR NZCH 120130Z AUTO 07010KT 030V110 9999 NCD 22/13 Q1016 NOSIG

10-Day Weather Forecast

No radar image for this location.
×

Almanac

Astronomy

Feb. 12, 2016 Rise Set
Actual Time
Civil Twilight
Nautical Twilight
Astronomical Twilight
Moon
Length of Visible Light
Length of Day
Tomorrow will be .
, % of the Moon is Illuminated

Today's Extremes

Country Highs Country Lows

Community

WunderPhotos

Upload Photos

1,892,207 photos uploaded!

WunderBlog® & News

Nearby

Air Quality

  Air Quality AQ Index Pollutant
Not available.

Snow Depth

Station Depth Elevation

Earthquake Activity

City Distance Mag. Time & Date
Minimum magnitude displayed is 2.5.

Coastal Water Temperatures

Place Temperature

Stations

Nearby Weather Stations

Station Location Temp. Windchill Dew Point Humidity Wind Precip. Elev Updated Type